sensor_id;sensor_type;location;lat;lon;timestamp;P1;durP1;ratioP1;P2;durP2;ratioP2
22248;SDS011;67538;52.180;5.646;2023-06-22T00:00:13;8.45;;;5.97;;
22248;SDS011;67538;52.180;5.646;2023-06-22T00:02:41;7.97;;;6.20;;
22248;SDS011;67538;52.180;5.646;2023-06-22T00:05:08;9.38;;;6.10;;
22248;SDS011;67538;52.180;5.646;2023-06-22T00:07:36;9.07;;;6.40;;
22248;SDS011;67538;52.180;5.646;2023-06-22T00:10:03;8.13;;;5.93;;
22248;SDS011;67538;52.180;5.646;2023-06-22T00:12:31;8.73;;;6.15;;
22248;SDS011;67538;52.180;5.646;2023-06-22T00:14:58;10.85;;;5.88;;
22248;SDS011;67538;52.180;5.646;2023-06-22T00:17:25;8.98;;;5.90;;
22248;SDS011;67538;52.180;5.646;2023-06-22T00:19:52;9.10;;;6.30;;
22248;SDS011;67538;52.180;5.646;2023-06-22T00:22:20;8.07;;;6.30;;
22248;SDS011;67538;52.180;5.646;2023-06-22T00:24:54;10.98;;;6.30;;
22248;SDS011;67538;52.180;5.646;2023-06-22T00:27:21;8.80;;;5.97;;
22248;SDS011;67538;52.180;5.646;2023-06-22T00:29:48;9.38;;;5.97;;
22248;SDS011;67538;52.180;5.646;2023-06-22T00:32:16;8.73;;;5.63;;
22248;SDS011;67538;52.180;5.646;2023-06-22T00:34:43;7.75;;;6.07;;
22248;SDS011;67538;52.180;5.646;2023-06-22T00:37:10;9.55;;;6.20;;
22248;SDS011;67538;52.180;5.646;2023-06-22T00:39:37;8.20;;;6.10;;
22248;SDS011;67538;52.180;5.646;2023-06-22T00:42:06;7.85;;;6.10;;
22248;SDS011;67538;52.180;5.646;2023-06-22T00:44:33;9.38;;;6.38;;
22248;SDS011;67538;52.180;5.646;2023-06-22T00:47:01;9.40;;;6.68;;
22248;SDS011;67538;52.180;5.646;2023-06-22T00:49:28;9.13;;;6.40;;
22248;SDS011;67538;52.180;5.646;2023-06-22T00:51:57;9.50;;;6.25;;
22248;SDS011;67538;52.180;5.646;2023-06-22T00:54:24;10.93;;;6.90;;
22248;SDS011;67538;52.180;5.646;2023-06-22T00:56:51;11.52;;;6.40;;
22248;SDS011;67538;52.180;5.646;2023-06-22T00:59:22;11.55;;;7.20;;
22248;SDS011;67538;52.180;5.646;2023-06-22T01:01:51;8.23;;;6.63;;
22248;SDS011;67538;52.180;5.646;2023-06-22T01:04:18;8.30;;;5.82;;
22248;SDS011;67538;52.180;5.646;2023-06-22T01:06:54;7.60;;;6.22;;
22248;SDS011;67538;52.180;5.646;2023-06-22T01:09:28;9.18;;;5.93;;
22248;SDS011;67538;52.180;5.646;2023-06-22T01:12:02;11.27;;;7.00;;
22248;SDS011;67538;52.180;5.646;2023-06-22T01:14:35;9.17;;;6.87;;
22248;SDS011;67538;52.180;5.646;2023-06-22T01:17:07;9.63;;;6.85;;
22248;SDS011;67538;52.180;5.646;2023-06-22T01:19:37;8.20;;;6.20;;
22248;SDS011;67538;52.180;5.646;2023-06-22T01:22:08;9.85;;;6.57;;
22248;SDS011;67538;52.180;5.646;2023-06-22T01:24:41;10.63;;;7.32;;
22248;SDS011;67538;52.180;5.646;2023-06-22T01:27:22;11.13;;;7.43;;
22248;SDS011;67538;52.180;5.646;2023-06-22T01:29:59;10.75;;;6.82;;
22248;SDS011;67538;52.180;5.646;2023-06-22T01:32:30;8.27;;;7.10;;
22248;SDS011;67538;52.180;5.646;2023-06-22T01:35:01;7.10;;;5.75;;
22248;SDS011;67538;52.180;5.646;2023-06-22T01:37:33;6.85;;;6.03;;
22248;SDS011;67538;52.180;5.646;2023-06-22T01:40:02;9.40;;;6.85;;
22248;SDS011;67538;52.180;5.646;2023-06-22T01:42:30;8.18;;;6.40;;
22248;SDS011;67538;52.180;5.646;2023-06-22T01:45:00;9.27;;;7.28;;
22248;SDS011;67538;52.180;5.646;2023-06-22T01:47:28;11.93;;;8.23;;
22248;SDS011;67538;52.180;5.646;2023-06-22T01:49:55;14.77;;;9.13;;
22248;SDS011;67538;52.180;5.646;2023-06-22T01:52:23;14.77;;;9.35;;
22248;SDS011;67538;52.180;5.646;2023-06-22T01:54:50;15.13;;;9.88;;
22248;SDS011;67538;52.180;5.646;2023-06-22T01:57:17;14.90;;;9.80;;
22248;SDS011;67538;52.180;5.646;2023-06-22T01:59:47;13.43;;;9.13;;
22248;SDS011;67538;52.180;5.646;2023-06-22T02:02:20;11.77;;;9.00;;
22248;SDS011;67538;52.180;5.646;2023-06-22T02:04:55;14.48;;;9.35;;
22248;SDS011;67538;52.180;5.646;2023-06-22T02:07:26;12.23;;;9.02;;
22248;SDS011;67538;52.180;5.646;2023-06-22T02:09:57;15.63;;;9.80;;
22248;SDS011;67538;52.180;5.646;2023-06-22T02:12:26;15.07;;;9.65;;
22248;SDS011;67538;52.180;5.646;2023-06-22T02:14:54;11.90;;;9.50;;
22248;SDS011;67538;52.180;5.646;2023-06-22T02:17:24;12.52;;;9.75;;
22248;SDS011;67538;52.180;5.646;2023-06-22T02:19:52;14.50;;;10.57;;
22248;SDS011;67538;52.180;5.646;2023-06-22T02:22:19;14.02;;;10.00;;
22248;SDS011;67538;52.180;5.646;2023-06-22T02:24:46;13.32;;;8.75;;
22248;SDS011;67538;52.180;5.646;2023-06-22T02:27:13;12.80;;;9.10;;
22248;SDS011;67538;52.180;5.646;2023-06-22T02:29:40;12.98;;;9.45;;
22248;SDS011;67538;52.180;5.646;2023-06-22T02:32:08;15.23;;;9.77;;
22248;SDS011;67538;52.180;5.646;2023-06-22T02:34:36;13.88;;;9.20;;
22248;SDS011;67538;52.180;5.646;2023-06-22T02:37:03;11.88;;;8.77;;
22248;SDS011;67538;52.180;5.646;2023-06-22T02:39:31;12.00;;;8.52;;
22248;SDS011;67538;52.180;5.646;2023-06-22T02:41:58;13.55;;;9.75;;
22248;SDS011;67538;52.180;5.646;2023-06-22T02:44:25;12.43;;;8.07;;
22248;SDS011;67538;52.180;5.646;2023-06-22T02:46:52;9.00;;;5.72;;
22248;SDS011;67538;52.180;5.646;2023-06-22T02:49:20;9.45;;;6.18;;
22248;SDS011;67538;52.180;5.646;2023-06-22T02:51:49;8.67;;;5.83;;
22248;SDS011;67538;52.180;5.646;2023-06-22T02:54:16;8.13;;;5.50;;
22248;SDS011;67538;52.180;5.646;2023-06-22T02:56:43;15.27;;;8.00;;
22248;SDS011;67538;52.180;5.646;2023-06-22T02:59:10;12.88;;;8.82;;
22248;SDS011;67538;52.180;5.646;2023-06-22T03:01:37;11.90;;;9.07;;
22248;SDS011;67538;52.180;5.646;2023-06-22T03:04:06;11.30;;;8.40;;
22248;SDS011;67538;52.180;5.646;2023-06-22T03:06:33;10.73;;;9.02;;
22248;SDS011;67538;52.180;5.646;2023-06-22T03:09:02;12.82;;;9.65;;
22248;SDS011;67538;52.180;5.646;2023-06-22T03:11:30;10.55;;;7.47;;
22248;SDS011;67538;52.180;5.646;2023-06-22T03:13:58;15.80;;;8.93;;
22248;SDS011;67538;52.180;5.646;2023-06-22T03:16:25;11.90;;;9.07;;
22248;SDS011;67538;52.180;5.646;2023-06-22T03:18:52;17.23;;;11.27;;
22248;SDS011;67538;52.180;5.646;2023-06-22T03:21:21;17.13;;;10.90;;
22248;SDS011;67538;52.180;5.646;2023-06-22T03:23:49;19.30;;;10.93;;
22248;SDS011;67538;52.180;5.646;2023-06-22T03:26:17;21.27;;;13.02;;
22248;SDS011;67538;52.180;5.646;2023-06-22T03:28:45;16.48;;;11.10;;
22248;SDS011;67538;52.180;5.646;2023-06-22T03:31:12;19.80;;;12.67;;
22248;SDS011;67538;52.180;5.646;2023-06-22T03:33:39;22.77;;;14.88;;
22248;SDS011;67538;52.180;5.646;2023-06-22T03:36:06;22.10;;;15.32;;
22248;SDS011;67538;52.180;5.646;2023-06-22T03:38:34;22.83;;;14.93;;
22248;SDS011;67538;52.180;5.646;2023-06-22T03:41:01;20.35;;;15.15;;
22248;SDS011;67538;52.180;5.646;2023-06-22T03:43:30;20.08;;;14.13;;
22248;SDS011;67538;52.180;5.646;2023-06-22T03:45:58;18.20;;;13.05;;
22248;SDS011;67538;52.180;5.646;2023-06-22T03:48:25;22.57;;;13.93;;
22248;SDS011;67538;52.180;5.646;2023-06-22T03:50:52;23.92;;;15.15;;
22248;SDS011;67538;52.180;5.646;2023-06-22T03:53:19;23.75;;;15.95;;
22248;SDS011;67538;52.180;5.646;2023-06-22T03:55:49;22.77;;;14.63;;
22248;SDS011;67538;52.180;5.646;2023-06-22T03:58:17;26.70;;;14.55;;
22248;SDS011;67538;52.180;5.646;2023-06-22T04:00:47;22.73;;;15.30;;
22248;SDS011;67538;52.180;5.646;2023-06-22T04:03:14;24.45;;;16.38;;
22248;SDS011;67538;52.180;5.646;2023-06-22T04:05:43;26.90;;;18.50;;
22248;SDS011;67538;52.180;5.646;2023-06-22T04:08:11;28.58;;;19.40;;
22248;SDS011;67538;52.180;5.646;2023-06-22T04:10:39;25.98;;;17.88;;
22248;SDS011;67538;52.180;5.646;2023-06-22T04:13:06;26.77;;;19.55;;
22248;SDS011;67538;52.180;5.646;2023-06-22T04:15:33;31.05;;;19.90;;
22248;SDS011;67538;52.180;5.646;2023-06-22T04:18:02;34.05;;;23.13;;
22248;SDS011;67538;52.180;5.646;2023-06-22T04:20:30;31.58;;;21.77;;
22248;SDS011;67538;52.180;5.646;2023-06-22T04:22:58;32.90;;;21.50;;
22248;SDS011;67538;52.180;5.646;2023-06-22T04:25:25;25.38;;;18.75;;
22248;SDS011;67538;52.180;5.646;2023-06-22T04:27:52;28.05;;;18.42;;
22248;SDS011;67538;52.180;5.646;2023-06-22T04:30:19;27.88;;;18.45;;
22248;SDS011;67538;52.180;5.646;2023-06-22T04:32:47;39.05;;;26.40;;
22248;SDS011;67538;52.180;5.646;2023-06-22T04:35:22;38.03;;;25.73;;
22248;SDS011;67538;52.180;5.646;2023-06-22T04:37:49;46.33;;;31.17;;
22248;SDS011;67538;52.180;5.646;2023-06-22T04:40:20;51.13;;;32.92;;
22248;SDS011;67538;52.180;5.646;2023-06-22T04:42:48;52.92;;;34.92;;
22248;SDS011;67538;52.180;5.646;2023-06-22T04:45:18;59.28;;;37.33;;
22248;SDS011;67538;52.180;5.646;2023-06-22T04:47:46;60.80;;;38.47;;
22248;SDS011;67538;52.180;5.646;2023-06-22T04:50:14;60.97;;;39.65;;
22248;SDS011;67538;52.180;5.646;2023-06-22T04:52:43;64.82;;;41.45;;
22248;SDS011;67538;52.180;5.646;2023-06-22T04:55:11;73.07;;;45.33;;
22248;SDS011;67538;52.180;5.646;2023-06-22T04:57:43;70.15;;;45.92;;
22248;SDS011;67538;52.180;5.646;2023-06-22T05:00:14;83.93;;;50.17;;
22248;SDS011;67538;52.180;5.646;2023-06-22T05:02:42;75.68;;;49.47;;
22248;SDS011;67538;52.180;5.646;2023-06-22T05:05:10;74.87;;;49.37;;
22248;SDS011;67538;52.180;5.646;2023-06-22T05:07:40;79.22;;;48.15;;
22248;SDS011;67538;52.180;5.646;2023-06-22T05:10:10;75.23;;;48.87;;
22248;SDS011;67538;52.180;5.646;2023-06-22T05:12:38;72.22;;;48.75;;
22248;SDS011;67538;52.180;5.646;2023-06-22T05:15:08;74.82;;;49.28;;
22248;SDS011;67538;52.180;5.646;2023-06-22T05:17:36;68.70;;;47.08;;
22248;SDS011;67538;52.180;5.646;2023-06-22T05:20:08;70.70;;;47.08;;
22248;SDS011;67538;52.180;5.646;2023-06-22T05:22:36;70.25;;;46.38;;
22248;SDS011;67538;52.180;5.646;2023-06-22T05:25:04;72.15;;;47.30;;
22248;SDS011;67538;52.180;5.646;2023-06-22T05:27:33;70.23;;;45.53;;
22248;SDS011;67538;52.180;5.646;2023-06-22T05:30:05;67.07;;;44.93;;
22248;SDS011;67538;52.180;5.646;2023-06-22T05:32:33;69.50;;;45.75;;
22248;SDS011;67538;52.180;5.646;2023-06-22T05:35:00;67.90;;;44.22;;
22248;SDS011;67538;52.180;5.646;2023-06-22T05:37:27;62.25;;;42.67;;
22248;SDS011;67538;52.180;5.646;2023-06-22T05:39:55;66.32;;;43.40;;
22248;SDS011;67538;52.180;5.646;2023-06-22T05:42:22;63.78;;;41.90;;
22248;SDS011;67538;52.180;5.646;2023-06-22T05:44:51;58.93;;;40.27;;
22248;SDS011;67538;52.180;5.646;2023-06-22T05:47:19;55.80;;;38.90;;
22248;SDS011;67538;52.180;5.646;2023-06-22T05:49:48;58.03;;;39.63;;
22248;SDS011;67538;52.180;5.646;2023-06-22T05:52:15;58.40;;;38.67;;
22248;SDS011;67538;52.180;5.646;2023-06-22T05:54:42;54.13;;;36.95;;
22248;SDS011;67538;52.180;5.646;2023-06-22T05:57:09;51.63;;;36.92;;
22248;SDS011;67538;52.180;5.646;2023-06-22T05:59:36;52.88;;;36.22;;
22248;SDS011;67538;52.180;5.646;2023-06-22T06:02:05;53.10;;;33.75;;
22248;SDS011;67538;52.180;5.646;2023-06-22T06:04:32;48.72;;;33.50;;
22248;SDS011;67538;52.180;5.646;2023-06-22T06:06:59;45.95;;;32.17;;
22248;SDS011;67538;52.180;5.646;2023-06-22T06:09:26;44.17;;;30.65;;
22248;SDS011;67538;52.180;5.646;2023-06-22T06:11:54;40.17;;;28.88;;
22248;SDS011;67538;52.180;5.646;2023-06-22T06:14:21;42.47;;;28.73;;
22248;SDS011;67538;52.180;5.646;2023-06-22T06:16:48;34.85;;;25.33;;
22248;SDS011;67538;52.180;5.646;2023-06-22T06:19:17;36.42;;;25.95;;
22248;SDS011;67538;52.180;5.646;2023-06-22T06:21:44;33.90;;;24.38;;
22248;SDS011;67538;52.180;5.646;2023-06-22T06:24:11;37.57;;;24.63;;
22248;SDS011;67538;52.180;5.646;2023-06-22T06:26:38;37.25;;;24.20;;
22248;SDS011;67538;52.180;5.646;2023-06-22T06:29:06;35.55;;;22.88;;
22248;SDS011;67538;52.180;5.646;2023-06-22T06:31:33;30.25;;;22.40;;
22248;SDS011;67538;52.180;5.646;2023-06-22T06:34:01;29.63;;;21.65;;
22248;SDS011;67538;52.180;5.646;2023-06-22T06:36:30;29.80;;;21.17;;
22248;SDS011;67538;52.180;5.646;2023-06-22T06:38:57;29.98;;;21.17;;
22248;SDS011;67538;52.180;5.646;2023-06-22T06:41:24;29.40;;;19.58;;
22248;SDS011;67538;52.180;5.646;2023-06-22T06:43:51;27.98;;;20.00;;
22248;SDS011;67538;52.180;5.646;2023-06-22T06:46:18;29.10;;;20.00;;
22248;SDS011;67538;52.180;5.646;2023-06-22T06:48:45;28.10;;;19.93;;
22248;SDS011;67538;52.180;5.646;2023-06-22T06:51:13;29.15;;;19.10;;
22248;SDS011;67538;52.180;5.646;2023-06-22T06:53:41;28.58;;;18.42;;
22248;SDS011;67538;52.180;5.646;2023-06-22T06:56:08;24.85;;;16.80;;
22248;SDS011;67538;52.180;5.646;2023-06-22T06:58:37;23.15;;;16.60;;
22248;SDS011;67538;52.180;5.646;2023-06-22T07:01:07;28.17;;;16.48;;
22248;SDS011;67538;52.180;5.646;2023-06-22T07:03:34;22.15;;;15.45;;
22248;SDS011;67538;52.180;5.646;2023-06-22T07:06:01;20.38;;;14.35;;
22248;SDS011;67538;52.180;5.646;2023-06-22T07:08:28;18.65;;;13.88;;
22248;SDS011;67538;52.180;5.646;2023-06-22T07:10:57;21.90;;;14.07;;
22248;SDS011;67538;52.180;5.646;2023-06-22T07:13:26;21.20;;;13.52;;
22248;SDS011;67538;52.180;5.646;2023-06-22T07:15:53;19.00;;;12.90;;
22248;SDS011;67538;52.180;5.646;2023-06-22T07:18:20;19.38;;;12.98;;
22248;SDS011;67538;52.180;5.646;2023-06-22T07:20:47;19.80;;;12.90;;
22248;SDS011;67538;52.180;5.646;2023-06-22T07:23:14;17.95;;;12.15;;
22248;SDS011;67538;52.180;5.646;2023-06-22T07:25:42;17.52;;;12.85;;
22248;SDS011;67538;52.180;5.646;2023-06-22T07:28:11;18.15;;;12.13;;
22248;SDS011;67538;52.180;5.646;2023-06-22T07:30:38;18.85;;;12.20;;
22248;SDS011;67538;52.180;5.646;2023-06-22T07:33:05;18.05;;;11.98;;
22248;SDS011;67538;52.180;5.646;2023-06-22T07:35:33;20.20;;;13.30;;
22248;SDS011;67538;52.180;5.646;2023-06-22T07:38:00;17.63;;;12.00;;
22248;SDS011;67538;52.180;5.646;2023-06-22T07:40:28;16.77;;;10.90;;
22248;SDS011;67538;52.180;5.646;2023-06-22T07:42:55;17.75;;;11.43;;
22248;SDS011;67538;52.180;5.646;2023-06-22T07:45:24;17.50;;;11.00;;
22248;SDS011;67538;52.180;5.646;2023-06-22T07:47:51;16.38;;;10.27;;
22248;SDS011;67538;52.180;5.646;2023-06-22T07:50:18;18.38;;;11.02;;
22248;SDS011;67538;52.180;5.646;2023-06-22T07:52:46;17.17;;;11.30;;
22248;SDS011;67538;52.180;5.646;2023-06-22T07:55:13;17.58;;;10.35;;
22248;SDS011;67538;52.180;5.646;2023-06-22T07:57:41;17.27;;;11.43;;
22248;SDS011;67538;52.180;5.646;2023-06-22T08:00:08;16.15;;;10.95;;
22248;SDS011;67538;52.180;5.646;2023-06-22T08:02:41;15.63;;;10.93;;
22248;SDS011;67538;52.180;5.646;2023-06-22T08:05:09;14.88;;;10.68;;
22248;SDS011;67538;52.180;5.646;2023-06-22T08:07:36;17.93;;;10.00;;
22248;SDS011;67538;52.180;5.646;2023-06-22T08:10:04;15.52;;;9.98;;
22248;SDS011;67538;52.180;5.646;2023-06-22T08:12:32;17.60;;;9.55;;
22248;SDS011;67538;52.180;5.646;2023-06-22T08:14:59;14.70;;;9.63;;
22248;SDS011;67538;52.180;5.646;2023-06-22T08:17:27;14.55;;;8.82;;
22248;SDS011;67538;52.180;5.646;2023-06-22T08:19:55;13.00;;;8.67;;
22248;SDS011;67538;52.180;5.646;2023-06-22T08:22:22;13.73;;;8.45;;
22248;SDS011;67538;52.180;5.646;2023-06-22T08:24:49;11.27;;;7.85;;
22248;SDS011;67538;52.180;5.646;2023-06-22T08:27:17;13.07;;;8.52;;
22248;SDS011;67538;52.180;5.646;2023-06-22T08:29:46;11.82;;;8.05;;
22248;SDS011;67538;52.180;5.646;2023-06-22T08:32:14;14.17;;;8.33;;
22248;SDS011;67538;52.180;5.646;2023-06-22T08:34:41;11.40;;;7.70;;
22248;SDS011;67538;52.180;5.646;2023-06-22T08:37:10;12.68;;;7.32;;
22248;SDS011;67538;52.180;5.646;2023-06-22T08:39:37;11.10;;;6.55;;
22248;SDS011;67538;52.180;5.646;2023-06-22T08:42:05;13.95;;;7.28;;
22248;SDS011;67538;52.180;5.646;2023-06-22T08:44:32;11.48;;;7.03;;
22248;SDS011;67538;52.180;5.646;2023-06-22T08:47:00;13.80;;;7.80;;
22248;SDS011;67538;52.180;5.646;2023-06-22T08:49:27;11.45;;;8.27;;
22248;SDS011;67538;52.180;5.646;2023-06-22T08:51:54;11.57;;;7.75;;
22248;SDS011;67538;52.180;5.646;2023-06-22T08:54:23;13.55;;;8.35;;
22248;SDS011;67538;52.180;5.646;2023-06-22T08:56:50;13.38;;;8.00;;
22248;SDS011;67538;52.180;5.646;2023-06-22T08:59:18;11.65;;;7.13;;
22248;SDS011;67538;52.180;5.646;2023-06-22T09:01:45;10.90;;;6.80;;
22248;SDS011;67538;52.180;5.646;2023-06-22T09:04:13;12.80;;;8.00;;
22248;SDS011;67538;52.180;5.646;2023-06-22T09:06:41;12.73;;;7.67;;
22248;SDS011;67538;52.180;5.646;2023-06-22T09:09:12;14.35;;;8.00;;
22248;SDS011;67538;52.180;5.646;2023-06-22T09:11:40;11.33;;;7.53;;
22248;SDS011;67538;52.180;5.646;2023-06-22T09:14:08;12.90;;;7.10;;
22248;SDS011;67538;52.180;5.646;2023-06-22T09:16:35;14.57;;;8.13;;
22248;SDS011;67538;52.180;5.646;2023-06-22T09:19:02;12.38;;;7.68;;
22248;SDS011;67538;52.180;5.646;2023-06-22T09:21:29;13.25;;;7.68;;
22248;SDS011;67538;52.180;5.646;2023-06-22T09:23:56;12.90;;;7.60;;
22248;SDS011;67538;52.180;5.646;2023-06-22T09:26:23;10.50;;;7.05;;
22248;SDS011;67538;52.180;5.646;2023-06-22T09:28:52;11.63;;;5.90;;
22248;SDS011;67538;52.180;5.646;2023-06-22T09:31:19;9.65;;;6.03;;
22248;SDS011;67538;52.180;5.646;2023-06-22T09:33:51;13.63;;;7.10;;
22248;SDS011;67538;52.180;5.646;2023-06-22T09:36:19;11.80;;;6.72;;
22248;SDS011;67538;52.180;5.646;2023-06-22T09:38:47;9.70;;;6.40;;
22248;SDS011;67538;52.180;5.646;2023-06-22T09:41:20;11.13;;;6.90;;
22248;SDS011;67538;52.180;5.646;2023-06-22T09:43:48;9.50;;;6.78;;
22248;SDS011;67538;52.180;5.646;2023-06-22T09:46:16;10.57;;;7.43;;
22248;SDS011;67538;52.180;5.646;2023-06-22T09:48:45;12.73;;;7.22;;
22248;SDS011;67538;52.180;5.646;2023-06-22T09:51:12;12.10;;;7.13;;
22248;SDS011;67538;52.180;5.646;2023-06-22T09:53:40;24.40;;;7.90;;
22248;SDS011;67538;52.180;5.646;2023-06-22T09:56:07;11.23;;;7.13;;
22248;SDS011;67538;52.180;5.646;2023-06-22T09:58:39;11.02;;;6.90;;
22248;SDS011;67538;52.180;5.646;2023-06-22T10:01:07;11.52;;;6.57;;
22248;SDS011;67538;52.180;5.646;2023-06-22T10:03:36;9.38;;;5.88;;
22248;SDS011;67538;52.180;5.646;2023-06-22T10:06:03;9.55;;;5.47;;
22248;SDS011;67538;52.180;5.646;2023-06-22T10:08:30;13.90;;;6.85;;
22248;SDS011;67538;52.180;5.646;2023-06-22T10:10:58;16.55;;;7.43;;
22248;SDS011;67538;52.180;5.646;2023-06-22T10:13:25;13.15;;;7.63;;
22248;SDS011;67538;52.180;5.646;2023-06-22T10:15:52;17.80;;;6.10;;
22248;SDS011;67538;52.180;5.646;2023-06-22T10:18:19;10.88;;;5.90;;
22248;SDS011;67538;52.180;5.646;2023-06-22T10:20:48;13.63;;;5.40;;
22248;SDS011;67538;52.180;5.646;2023-06-22T10:23:16;14.33;;;5.60;;
22248;SDS011;67538;52.180;5.646;2023-06-22T10:25:43;10.07;;;5.53;;
22248;SDS011;67538;52.180;5.646;2023-06-22T10:28:11;13.38;;;6.00;;
22248;SDS011;67538;52.180;5.646;2023-06-22T10:30:38;20.02;;;5.50;;
22248;SDS011;67538;52.180;5.646;2023-06-22T10:33:06;10.20;;;6.13;;
22248;SDS011;67538;52.180;5.646;2023-06-22T10:35:33;12.50;;;6.30;;
22248;SDS011;67538;52.180;5.646;2023-06-22T10:38:04;19.05;;;6.60;;
22248;SDS011;67538;52.180;5.646;2023-06-22T10:40:32;12.55;;;6.00;;
22248;SDS011;67538;52.180;5.646;2023-06-22T10:42:59;15.38;;;6.50;;
22248;SDS011;67538;52.180;5.646;2023-06-22T10:45:26;9.73;;;6.32;;
22248;SDS011;67538;52.180;5.646;2023-06-22T10:47:53;8.95;;;5.20;;
22248;SDS011;67538;52.180;5.646;2023-06-22T10:50:20;9.88;;;5.05;;
22248;SDS011;67538;52.180;5.646;2023-06-22T10:52:49;8.33;;;5.17;;
22248;SDS011;67538;52.180;5.646;2023-06-22T10:55:18;9.00;;;5.53;;
22248;SDS011;67538;52.180;5.646;2023-06-22T10:57:45;10.93;;;5.85;;
22248;SDS011;67538;52.180;5.646;2023-06-22T11:00:13;16.20;;;6.70;;
22248;SDS011;67538;52.180;5.646;2023-06-22T11:02:41;13.80;;;7.15;;
22248;SDS011;67538;52.180;5.646;2023-06-22T11:05:08;17.42;;;7.30;;
22248;SDS011;67538;52.180;5.646;2023-06-22T11:07:35;11.02;;;7.40;;
22248;SDS011;67538;52.180;5.646;2023-06-22T11:10:03;10.40;;;7.07;;
22248;SDS011;67538;52.180;5.646;2023-06-22T11:12:32;12.27;;;7.00;;
22248;SDS011;67538;52.180;5.646;2023-06-22T11:15:00;14.27;;;7.55;;
22248;SDS011;67538;52.180;5.646;2023-06-22T11:17:27;13.57;;;6.30;;
22248;SDS011;67538;52.180;5.646;2023-06-22T11:19:55;20.23;;;8.05;;
22248;SDS011;67538;52.180;5.646;2023-06-22T11:22:22;15.95;;;9.05;;
22248;SDS011;67538;52.180;5.646;2023-06-22T11:24:49;13.77;;;9.52;;
22248;SDS011;67538;52.180;5.646;2023-06-22T11:27:16;13.23;;;9.10;;
22248;SDS011;67538;52.180;5.646;2023-06-22T11:29:44;16.42;;;8.75;;
22248;SDS011;67538;52.180;5.646;2023-06-22T11:32:11;12.07;;;8.40;;
22248;SDS011;67538;52.180;5.646;2023-06-22T11:34:39;13.88;;;8.20;;
22248;SDS011;67538;52.180;5.646;2023-06-22T11:37:06;16.02;;;8.02;;
22248;SDS011;67538;52.180;5.646;2023-06-22T11:39:33;16.05;;;8.13;;
22248;SDS011;67538;52.180;5.646;2023-06-22T11:42:00;11.60;;;8.23;;
22248;SDS011;67538;52.180;5.646;2023-06-22T11:44:27;17.73;;;8.48;;
22248;SDS011;67538;52.180;5.646;2023-06-22T11:46:56;14.70;;;7.85;;
22248;SDS011;67538;52.180;5.646;2023-06-22T11:49:23;22.43;;;8.50;;
22248;SDS011;67538;52.180;5.646;2023-06-22T11:51:50;18.23;;;8.10;;
22248;SDS011;67538;52.180;5.646;2023-06-22T11:54:18;16.45;;;7.47;;
22248;SDS011;67538;52.180;5.646;2023-06-22T11:56:45;16.00;;;7.53;;
22248;SDS011;67538;52.180;5.646;2023-06-22T11:59:12;19.02;;;9.43;;
22248;SDS011;67538;52.180;5.646;2023-06-22T12:01:39;22.13;;;8.93;;
22248;SDS011;67538;52.180;5.646;2023-06-22T12:04:08;14.38;;;8.73;;
22248;SDS011;67538;52.180;5.646;2023-06-22T12:06:37;12.13;;;8.40;;
22248;SDS011;67538;52.180;5.646;2023-06-22T12:09:07;20.75;;;10.20;;
22248;SDS011;67538;52.180;5.646;2023-06-22T12:11:34;13.68;;;8.95;;
22248;SDS011;67538;52.180;5.646;2023-06-22T12:14:01;28.23;;;9.93;;
22248;SDS011;67538;52.180;5.646;2023-06-22T12:16:28;24.55;;;10.52;;
22248;SDS011;67538;52.180;5.646;2023-06-22T12:18:55;18.63;;;10.23;;
22248;SDS011;67538;52.180;5.646;2023-06-22T12:21:24;20.90;;;10.17;;
22248;SDS011;67538;52.180;5.646;2023-06-22T12:23:51;15.02;;;10.55;;
22248;SDS011;67538;52.180;5.646;2023-06-22T12:26:18;15.88;;;10.43;;
22248;SDS011;67538;52.180;5.646;2023-06-22T12:28:45;16.30;;;9.55;;
22248;SDS011;67538;52.180;5.646;2023-06-22T12:31:13;15.60;;;9.70;;
22248;SDS011;67538;52.180;5.646;2023-06-22T12:33:41;14.00;;;9.68;;
22248;SDS011;67538;52.180;5.646;2023-06-22T12:36:08;14.18;;;9.30;;
22248;SDS011;67538;52.180;5.646;2023-06-22T12:38:36;17.55;;;9.05;;
22248;SDS011;67538;52.180;5.646;2023-06-22T12:41:03;13.63;;;9.45;;
22248;SDS011;67538;52.180;5.646;2023-06-22T12:43:31;14.88;;;8.43;;
22248;SDS011;67538;52.180;5.646;2023-06-22T12:45:58;13.98;;;8.77;;
22248;SDS011;67538;52.180;5.646;2023-06-22T12:48:25;14.10;;;8.35;;
22248;SDS011;67538;52.180;5.646;2023-06-22T12:50:53;13.27;;;9.48;;
22248;SDS011;67538;52.180;5.646;2023-06-22T12:53:20;14.63;;;9.32;;
22248;SDS011;67538;52.180;5.646;2023-06-22T12:55:50;13.38;;;9.60;;
22248;SDS011;67538;52.180;5.646;2023-06-22T12:58:17;12.80;;;9.65;;
22248;SDS011;67538;52.180;5.646;2023-06-22T13:00:45;13.50;;;9.55;;
22248;SDS011;67538;52.180;5.646;2023-06-22T13:03:12;19.27;;;9.15;;
22248;SDS011;67538;52.180;5.646;2023-06-22T13:05:39;17.85;;;8.88;;
22248;SDS011;67538;52.180;5.646;2023-06-22T13:08:06;21.08;;;8.75;;
22248;SDS011;67538;52.180;5.646;2023-06-22T13:10:33;16.40;;;8.00;;
22248;SDS011;67538;52.180;5.646;2023-06-22T13:13:01;17.13;;;8.73;;
22248;SDS011;67538;52.180;5.646;2023-06-22T13:15:28;16.00;;;8.90;;
22248;SDS011;67538;52.180;5.646;2023-06-22T13:17:56;16.13;;;9.30;;
22248;SDS011;67538;52.180;5.646;2023-06-22T13:20:23;18.37;;;9.80;;
22248;SDS011;67538;52.180;5.646;2023-06-22T13:22:50;16.13;;;10.10;;
22248;SDS011;67538;52.180;5.646;2023-06-22T13:25:18;16.85;;;9.93;;
22248;SDS011;67538;52.180;5.646;2023-06-22T13:27:49;15.70;;;10.60;;
22248;SDS011;67538;52.180;5.646;2023-06-22T13:30:17;18.33;;;10.90;;
22248;SDS011;67538;52.180;5.646;2023-06-22T13:32:44;17.00;;;11.32;;
22248;SDS011;67538;52.180;5.646;2023-06-22T13:35:11;18.80;;;11.05;;
22248;SDS011;67538;52.180;5.646;2023-06-22T13:37:39;16.13;;;12.05;;
22248;SDS011;67538;52.180;5.646;2023-06-22T13:40:06;21.52;;;12.63;;
22248;SDS011;67538;52.180;5.646;2023-06-22T13:42:34;22.10;;;12.32;;
22248;SDS011;67538;52.180;5.646;2023-06-22T13:45:01;17.52;;;12.25;;
22248;SDS011;67538;52.180;5.646;2023-06-22T13:47:30;19.23;;;12.35;;
22248;SDS011;67538;52.180;5.646;2023-06-22T13:49:57;24.33;;;13.07;;
22248;SDS011;67538;52.180;5.646;2023-06-22T13:52:25;18.88;;;12.82;;
22248;SDS011;67538;52.180;5.646;2023-06-22T13:54:52;18.08;;;12.90;;
22248;SDS011;67538;52.180;5.646;2023-06-22T13:57:19;17.48;;;12.35;;
22248;SDS011;67538;52.180;5.646;2023-06-22T13:59:46;14.97;;;11.70;;
22248;SDS011;67538;52.180;5.646;2023-06-22T14:02:13;17.23;;;12.68;;
22248;SDS011;67538;52.180;5.646;2023-06-22T14:04:42;18.42;;;12.60;;
22248;SDS011;67538;52.180;5.646;2023-06-22T14:07:09;19.73;;;14.02;;
22248;SDS011;67538;52.180;5.646;2023-06-22T14:09:36;17.15;;;13.38;;
22248;SDS011;67538;52.180;5.646;2023-06-22T14:12:04;19.67;;;14.00;;
22248;SDS011;67538;52.180;5.646;2023-06-22T14:14:31;19.45;;;14.55;;
22248;SDS011;67538;52.180;5.646;2023-06-22T14:16:59;19.38;;;13.70;;
22248;SDS011;67538;52.180;5.646;2023-06-22T14:19:26;17.90;;;12.73;;
22248;SDS011;67538;52.180;5.646;2023-06-22T14:21:55;16.38;;;12.35;;
22248;SDS011;67538;52.180;5.646;2023-06-22T14:24:22;17.80;;;12.35;;
22248;SDS011;67538;52.180;5.646;2023-06-22T14:26:49;20.55;;;12.48;;
22248;SDS011;67538;52.180;5.646;2023-06-22T14:29:16;14.63;;;11.73;;
22248;SDS011;67538;52.180;5.646;2023-06-22T14:31:44;20.17;;;12.17;;
22248;SDS011;67538;52.180;5.646;2023-06-22T14:34:12;17.25;;;13.18;;